createdAt,value
2023-04-26T00:08:23.086Z,4.85
2023-04-26T00:19:25.494Z,5.05
2023-04-26T00:30:04.255Z,4.85
2023-04-26T00:41:07.702Z,4.27
2023-04-26T00:52:09.216Z,4.07
2023-04-26T01:02:51.362Z,3.88
2023-04-26T01:13:52.256Z,3.68
2023-04-26T01:24:41.023Z,3.58
2023-04-26T01:35:36.019Z,3.48
2023-04-26T01:46:39.404Z,3.39
2023-04-26T01:57:52.401Z,3.09
2023-04-26T02:09:03.373Z,3.09
2023-04-26T02:20:15.449Z,3.09
2023-04-26T02:31:20.565Z,3.39
2023-04-26T02:42:24.641Z,3.09
2023-04-26T02:53:28.608Z,2.70
2023-04-26T03:04:37.467Z,2.60
2023-04-26T03:15:43.667Z,2.80
2023-04-26T03:26:29.158Z,2.70
2023-04-26T03:37:38.070Z,2.70
2023-04-26T03:48:49.112Z,2.51
2023-04-26T03:59:33.846Z,2.60
2023-04-26T04:10:25.839Z,3.00
2023-04-26T04:21:13.078Z,3.39
2023-04-26T04:32:23.256Z,3.58
2023-04-26T04:43:30.638Z,3.78
2023-04-26T04:54:32.820Z,4.27
2023-04-26T05:05:32.954Z,4.75
2023-04-26T05:16:35.428Z,5.05
2023-04-26T05:27:25.668Z,5.34
2023-04-26T05:38:23.448Z,5.34
2023-04-26T05:49:19.701Z,5.83
2023-04-26T06:00:15.897Z,5.93
2023-04-26T06:11:07.996Z,6.12
2023-04-26T06:22:03.760Z,6.91
2023-04-26T06:33:03.551Z,7.98
2023-04-26T06:44:02.925Z,8.67
2023-04-26T06:55:00.703Z,8.77
2023-04-26T07:05:58.226Z,9.55
2023-04-26T07:16:54.190Z,10.14
2023-04-26T07:27:38.403Z,10.23
2023-04-26T07:38:11.680Z,10.13
2023-04-26T07:48:43.959Z,10.23
2023-04-26T07:59:37.508Z,10.72
2023-04-26T08:10:11.560Z,10.82
2023-04-26T08:21:05.735Z,11.60
2023-04-26T08:31:39.679Z,11.60
2023-04-26T08:42:38.019Z,11.41
2023-04-26T08:53:38.252Z,11.90
2023-04-26T09:04:38.368Z,12.68
2023-04-26T09:15:34.734Z,12.39
2023-04-26T09:26:31.537Z,12.77
2023-04-26T09:37:27.150Z,12.87
2023-04-26T09:48:17.384Z,12.19
2023-04-26T09:59:11.556Z,12.09
2023-04-26T10:10:10.700Z,13.36
2023-04-26T10:20:47.066Z,13.75
2023-04-26T10:31:41.290Z,13.85
2023-04-26T10:42:18.781Z,14.54
2023-04-26T10:52:51.650Z,14.34
2023-04-26T11:03:51.786Z,15.02
2023-04-26T11:14:29.462Z,16.69
2023-04-26T11:25:00.832Z,14.24
2023-04-26T11:35:45.601Z,13.17
2023-04-26T11:46:43.956Z,20.11
2023-04-26T11:57:18.254Z,22.26
2023-04-26T12:08:11.187Z,21.87
2023-04-26T12:19:06.673Z,16.98
2023-04-26T12:30:01.325Z,16.59
2023-04-26T12:40:55.460Z,15.22
2023-04-26T12:51:42.528Z,14.93
2023-04-26T13:02:27.923Z,13.75
2023-04-26T13:13:39.811Z,14.14
2023-04-26T13:24:21.789Z,14.44
2023-04-26T13:35:12.730Z,14.15
2023-04-26T13:45:55.287Z,17.76
2023-04-26T13:56:49.473Z,15.81
2023-04-26T14:07:47.599Z,16.10
2023-04-26T14:18:46.594Z,15.42
2023-04-26T14:29:20.962Z,14.93
2023-04-26T14:40:17.798Z,14.63
2023-04-26T15:01:55.557Z,15.81
2023-04-26T15:12:55.490Z,17.67
2023-04-26T15:23:39.336Z,15.61
2023-04-26T15:34:32.428Z,15.42
2023-04-26T15:45:05.903Z,16.10
2023-04-26T15:56:00.658Z,15.61
2023-04-26T16:06:52.383Z,14.05
2023-04-26T16:17:50.366Z,13.26
2023-04-26T16:28:48.281Z,12.97
2023-04-26T16:39:47.215Z,12.87
2023-04-26T16:50:43.150Z,12.38
2023-04-26T17:01:42.714Z,12.19
2023-04-26T17:12:41.314Z,11.70
2023-04-26T17:23:40.694Z,11.21
2023-04-26T17:34:36.600Z,11.11
2023-04-26T17:45:32.790Z,10.82
2023-04-26T17:56:06.167Z,10.04
2023-04-26T18:06:48.587Z,9.55
2023-04-26T18:17:42.122Z,8.76
2023-04-26T18:28:34.775Z,8.18
2023-04-26T18:39:08.885Z,7.88
2023-04-26T18:50:05.869Z,7.49
2023-04-26T19:01:00.986Z,7.10
2023-04-26T19:11:34.808Z,6.71
2023-04-26T19:22:20.178Z,6.52
2023-04-26T19:33:02.398Z,6.42
2023-04-26T19:44:01.206Z,6.42
2023-04-26T19:54:58.260Z,6.42
2023-04-26T20:05:56.866Z,6.52
2023-04-26T20:16:52.936Z,6.42
2023-04-26T20:27:49.159Z,6.32
2023-04-26T20:38:44.239Z,6.42
2023-04-26T20:49:41.449Z,6.32
2023-04-26T21:00:40.281Z,6.22
2023-04-26T21:11:38.679Z,5.83
2023-04-26T21:22:37.707Z,5.54
2023-04-26T21:33:36.270Z,5.73
2023-04-26T21:44:30.771Z,5.54
2023-04-26T21:55:28.683Z,5.73
2023-04-26T22:06:29.504Z,5.54
2023-04-26T22:17:28.017Z,5.54
2023-04-26T22:28:26.651Z,5.63
2023-04-26T22:39:28.122Z,5.93
2023-04-26T22:50:15.334Z,6.03
2023-04-26T23:00:52.831Z,6.03
2023-04-26T23:11:49.934Z,6.12
2023-04-26T23:22:26.555Z,5.93
2023-04-26T23:33:27.590Z,5.73
2023-04-26T23:44:25.487Z,5.83
2023-04-26T23:55:19.569Z,5.73
